createdAt,value
2022-11-01T00:00:45.837Z,10.88
2022-11-01T00:03:17.903Z,10.07
2022-11-01T00:05:49.083Z,10.02
2022-11-01T00:08:36.075Z,10.52
2022-11-01T00:11:09.055Z,10.88
2022-11-01T00:13:59.866Z,10.98
2022-11-01T00:16:31.013Z,12.07
2022-11-01T00:19:01.828Z,11.65
2022-11-01T00:21:32.642Z,10.95
2022-11-01T00:24:03.837Z,12.25
2022-11-01T00:26:35.298Z,11.98
2022-11-01T00:29:06.642Z,11.73
2022-11-01T00:31:37.641Z,11.75
2022-11-01T00:34:08.693Z,11.88
2022-11-01T00:36:39.612Z,11.73
2022-11-01T00:39:14.296Z,11.90
2022-11-01T00:41:48.009Z,11.73
2022-11-01T00:44:19.942Z,12.18
2022-11-01T00:47:10.711Z,11.57
2022-11-01T00:49:41.811Z,11.35
2022-11-01T00:54:56.637Z,10.63
2022-11-01T00:57:27.590Z,11.20
2022-11-01T00:59:58.601Z,11.43
2022-11-01T01:02:29.791Z,11.32
2022-11-01T01:05:20.458Z,11.23
2022-11-01T01:07:51.577Z,11.15
2022-11-01T01:10:22.622Z,11.90
2022-11-01T01:12:53.547Z,12.07
2022-11-01T01:15:25.054Z,11.50
2022-11-01T01:17:55.943Z,11.63
2022-11-01T01:20:26.879Z,11.75
2022-11-01T01:22:58.179Z,12.27
2022-11-01T01:25:29.170Z,11.65
2022-11-01T01:28:00.273Z,11.40
2022-11-01T01:30:31.331Z,12.20
2022-11-01T01:33:02.286Z,11.98
2022-11-01T01:35:33.378Z,11.35
2022-11-01T01:38:04.626Z,11.85
2022-11-01T01:40:36.793Z,11.73
2022-11-01T01:43:43.355Z,11.77
2022-11-01T01:46:14.498Z,11.38
2022-11-01T01:48:49.800Z,12.10
2022-11-01T01:51:24.717Z,11.75
2022-11-01T01:53:57.505Z,11.05
2022-11-01T01:56:40.875Z,11.38
2022-11-01T02:02:23.160Z,11.57
2022-11-01T02:04:59.956Z,11.23
2022-11-01T02:07:31.439Z,11.43
2022-11-01T02:10:02.490Z,11.35
2022-11-01T02:12:53.579Z,10.82
2022-11-01T02:15:30.498Z,10.82
2022-11-01T02:18:23.177Z,11.65
2022-11-01T02:21:11.972Z,11.52
2022-11-01T02:24:16.738Z,11.02
2022-11-01T02:27:13.743Z,10.85
2022-11-01T02:29:53.534Z,11.20
2022-11-01T02:32:41.030Z,11.25
2022-11-01T02:35:30.981Z,11.35
2022-11-01T02:38:17.882Z,11.50
2022-11-01T02:41:19.881Z,11.65
2022-11-01T02:44:06.555Z,11.00
2022-11-01T02:46:59.227Z,10.77
2022-11-01T02:49:35.148Z,11.57
2022-11-01T02:52:28.148Z,12.18
2022-11-01T02:55:01.911Z,11.27
2022-11-01T03:00:26.175Z,10.35
2022-11-01T03:03:22.717Z,12.02
2022-11-01T03:06:41.455Z,11.40
2022-11-01T03:09:16.995Z,10.82
2022-11-01T03:11:58.952Z,11.00
2022-11-01T03:14:40.501Z,10.73
2022-11-01T03:17:34.025Z,10.15
2022-11-01T03:20:21.375Z,11.18
2022-11-01T03:23:04.799Z,10.85
2022-11-01T03:25:48.653Z,10.93
2022-11-01T03:28:33.766Z,10.35
2022-11-01T03:31:18.041Z,10.98
2022-11-01T03:33:53.305Z,10.57
2022-11-01T03:36:29.590Z,10.23
2022-11-01T03:39:13.416Z,10.23
2022-11-01T03:41:51.238Z,10.68
2022-11-01T03:44:47.579Z,9.98
2022-11-01T03:47:18.432Z,10.85
2022-11-01T03:49:49.326Z,9.90
2022-11-01T03:52:20.400Z,10.40
2022-11-01T03:54:51.243Z,10.75
2022-11-01T03:57:22.399Z,10.45
2022-11-01T03:59:53.446Z,9.38
2022-11-01T04:02:24.285Z,10.48
2022-11-01T04:04:55.407Z,9.88
2022-11-01T04:07:26.558Z,10.60
2022-11-01T04:09:57.577Z,9.35
2022-11-01T04:12:30.003Z,9.10
2022-11-01T04:15:18.964Z,10.05
2022-11-01T04:18:07.797Z,9.23
2022-11-01T04:20:38.659Z,9.82
2022-11-01T04:23:09.856Z,10.43
2022-11-01T04:25:41.468Z,9.80
2022-11-01T04:28:12.752Z,10.13
2022-11-01T04:30:45.152Z,9.15
2022-11-01T04:33:16.663Z,9.68
2022-11-01T04:35:48.159Z,9.90
2022-11-01T04:38:19.381Z,9.27
2022-11-01T04:40:50.498Z,9.43
2022-11-01T04:43:24.031Z,8.95
2022-11-01T04:46:00.788Z,11.38
2022-11-01T04:48:31.705Z,9.95
2022-11-01T04:51:22.661Z,11.25
2022-11-01T04:53:54.421Z,12.85
2022-11-01T04:56:25.616Z,11.00
2022-11-01T04:58:56.655Z,12.43
2022-11-01T05:01:28.040Z,12.57
2022-11-01T05:03:59.001Z,12.85
2022-11-01T05:06:30.827Z,12.25
2022-11-01T05:09:01.928Z,13.20
2022-11-01T05:11:32.965Z,11.85
2022-11-01T05:14:04.058Z,11.80
2022-11-01T05:16:57.171Z,11.90
2022-11-01T05:19:31.473Z,12.25
2022-11-01T05:22:02.423Z,11.55
2022-11-01T05:24:33.634Z,11.68
2022-11-01T05:27:04.882Z,11.50
2022-11-01T05:29:35.761Z,11.15
2022-11-01T05:32:07.213Z,12.10
2022-11-01T05:34:38.247Z,10.93
2022-11-01T05:37:09.082Z,10.57
2022-11-01T05:39:40.159Z,11.02
2022-11-01T05:42:11.210Z,10.98
2022-11-01T05:44:42.154Z,11.95
2022-11-01T05:47:17.195Z,10.70
2022-11-01T05:50:12.281Z,10.68
2022-11-01T05:52:43.970Z,11.40
2022-11-01T05:55:15.217Z,10.98
2022-11-01T06:00:33.924Z,11.23
2022-11-01T06:03:06.013Z,10.70
2022-11-01T06:05:41.482Z,10.32
2022-11-01T06:08:12.496Z,11.15
2022-11-01T06:10:43.686Z,10.68
2022-11-01T06:13:15.063Z,10.27
2022-11-01T06:15:46.445Z,9.65
2022-11-01T06:18:17.719Z,10.05
2022-11-01T06:21:08.922Z,10.60
2022-11-01T06:23:39.706Z,9.65
2022-11-01T06:26:10.581Z,9.88
2022-11-01T06:28:41.454Z,9.65
2022-11-01T06:31:13.331Z,10.35
2022-11-01T06:33:44.586Z,9.38
2022-11-01T06:36:15.683Z,10.38
2022-11-01T06:38:46.835Z,9.95
2022-11-01T06:41:18.030Z,10.15
2022-11-01T06:43:51.425Z,9.82
2022-11-01T06:46:22.232Z,10.25
2022-11-01T06:48:53.209Z,9.65
2022-11-01T06:51:24.981Z,10.13
2022-11-01T06:53:55.761Z,9.27
2022-11-01T06:56:26.805Z,9.23
2022-11-01T06:58:57.672Z,9.15
2022-11-01T07:01:29.617Z,9.23
2022-11-01T07:04:00.748Z,9.73
2022-11-01T07:06:32.414Z,9.77
2022-11-01T07:09:03.847Z,9.13
2022-11-01T07:11:35.792Z,8.85
2022-11-01T07:14:07.206Z,9.65
2022-11-01T07:16:40.174Z,8.75
2022-11-01T07:19:11.182Z,9.60
2022-11-01T07:21:42.239Z,9.15
2022-11-01T07:24:13.187Z,9.00
2022-11-01T07:26:44.217Z,9.50
2022-11-01T07:29:15.505Z,8.65
2022-11-01T07:31:46.670Z,8.63
2022-11-01T07:34:17.510Z,9.27
2022-11-01T07:36:48.398Z,9.25
2022-11-01T07:39:19.139Z,9.05
2022-11-01T07:41:52.501Z,9.07
2022-11-01T07:44:23.394Z,8.48
2022-11-01T07:46:54.527Z,8.25
2022-11-01T07:49:25.352Z,8.65
2022-11-01T07:51:58.972Z,8.27
2022-11-01T07:54:33.695Z,9.05
2022-11-01T07:57:04.737Z,9.20
2022-11-01T07:59:35.562Z,8.60
2022-11-01T08:02:08.047Z,8.50
2022-11-01T08:04:40.585Z,8.43
2022-11-01T08:07:11.562Z,8.38
2022-11-01T08:09:43.705Z,8.35
2022-11-01T08:12:14.656Z,8.20
2022-11-01T08:14:45.643Z,8.40
2022-11-01T08:17:16.743Z,9.38
2022-11-01T08:19:47.552Z,8.38
2022-11-01T08:22:18.593Z,8.85
2022-11-01T08:24:49.810Z,8.38
2022-11-01T08:27:20.881Z,8.80
2022-11-01T08:30:11.534Z,7.68
2022-11-01T08:32:43.501Z,8.13
2022-11-01T08:35:14.956Z,8.27
2022-11-01T08:37:55.252Z,8.77
2022-11-01T08:40:47.144Z,8.60
2022-11-01T08:43:18.252Z,7.57
2022-11-01T08:45:49.407Z,7.70
2022-11-01T08:48:20.431Z,7.93
2022-11-01T08:50:51.473Z,7.55
2022-11-01T08:53:22.815Z,7.57
2022-11-01T08:55:58.590Z,8.60
2022-11-01T08:58:30.364Z,7.82
2022-11-01T09:01:01.294Z,7.97
2022-11-01T09:03:32.354Z,8.02
2022-11-01T09:06:03.269Z,8.68
2022-11-01T09:08:34.593Z,9.45
2022-11-01T09:11:08.239Z,9.10
2022-11-01T09:13:42.416Z,9.52
2022-11-01T09:16:13.558Z,11.50
2022-11-01T09:18:44.967Z,11.25
2022-11-01T09:21:16.356Z,11.43
2022-11-01T09:23:50.173Z,11.38
2022-11-01T09:26:21.315Z,12.85
2022-11-01T09:28:56.505Z,13.20
2022-11-01T09:31:27.595Z,13.13
2022-11-01T09:33:59.675Z,12.65
2022-11-01T09:36:31.326Z,12.45
2022-11-01T09:41:56.278Z,12.30
2022-11-01T09:44:32.061Z,12.35
2022-11-01T09:47:21.711Z,12.35
2022-11-01T09:50:02.540Z,12.43
2022-11-01T09:52:34.074Z,11.48
2022-11-01T09:55:05.036Z,11.80
2022-11-01T09:57:42.756Z,11.77
2022-11-01T10:00:15.444Z,11.80
2022-11-01T10:03:01.975Z,11.57
2022-11-01T10:05:50.811Z,11.95
2022-11-01T10:09:08.067Z,12.30
2022-11-01T10:12:03.014Z,11.55
2022-11-01T10:14:58.068Z,10.43
2022-11-01T10:17:55.182Z,11.40
2022-11-01T10:20:32.564Z,10.73
2022-11-01T10:23:05.830Z,11.98
2022-11-01T10:25:41.134Z,12.27
2022-11-01T10:28:27.724Z,11.23
2022-11-01T10:31:09.336Z,12.13
2022-11-01T10:33:49.672Z,11.82
2022-11-01T10:36:32.486Z,12.27
2022-11-01T10:42:19.240Z,13.20
2022-11-01T10:45:05.171Z,13.73
2022-11-01T10:47:36.630Z,12.30
2022-11-01T10:50:15.854Z,12.23
2022-11-01T10:53:13.080Z,12.02
2022-11-01T10:55:58.915Z,12.30
2022-11-01T10:58:47.248Z,11.57
2022-11-01T11:01:24.223Z,11.95
2022-11-01T11:03:56.766Z,12.20
2022-11-01T11:06:27.852Z,12.98
2022-11-01T11:09:00.635Z,11.55
2022-11-01T11:11:42.130Z,11.43
2022-11-01T11:14:14.862Z,11.85
2022-11-01T11:16:55.749Z,11.48
2022-11-01T11:19:32.655Z,11.65
2022-11-01T11:22:09.888Z,10.85
2022-11-01T11:24:46.582Z,11.45
2022-11-01T11:27:20.562Z,12.25
2022-11-01T11:29:56.758Z,11.45
2022-11-01T11:32:36.261Z,10.82
2022-11-01T11:35:11.666Z,10.20
2022-11-01T11:37:51.734Z,11.02
2022-11-01T11:40:42.261Z,10.32
2022-11-01T11:43:24.233Z,10.90
2022-11-01T11:46:24.919Z,10.00
2022-11-01T11:49:08.563Z,10.50
2022-11-01T11:51:41.071Z,11.05
2022-11-01T11:54:21.418Z,11.38
2022-11-01T11:57:16.329Z,10.68
2022-11-01T11:59:52.396Z,10.75
2022-11-01T12:02:43.860Z,11.55
2022-11-01T12:05:28.240Z,10.50
2022-11-01T12:10:39.362Z,10.52
2022-11-01T12:13:33.608Z,10.57
2022-11-01T12:16:21.475Z,11.00
2022-11-01T12:19:03.499Z,10.60
2022-11-01T12:21:41.552Z,10.32
2022-11-01T12:24:22.887Z,9.77
2022-11-01T12:27:00.471Z,10.73
2022-11-01T12:29:47.063Z,9.75
2022-11-01T12:32:29.036Z,9.93
2022-11-01T12:35:08.013Z,10.57
2022-11-01T12:38:03.842Z,12.43
2022-11-01T12:41:03.620Z,11.80
2022-11-01T12:44:03.162Z,13.48
2022-11-01T12:47:16.129Z,12.18
2022-11-01T12:49:57.178Z,13.30
2022-11-01T12:52:54.296Z,17.60
2022-11-01T12:55:40.941Z,16.92
2022-11-01T12:58:19.122Z,14.45
2022-11-01T13:01:14.684Z,14.40
2022-11-01T13:03:54.743Z,15.27
2022-11-01T13:06:40.840Z,15.88
2022-11-01T13:09:25.533Z,17.10
2022-11-01T13:12:07.421Z,17.35
2022-11-01T13:15:15.219Z,18.65
2022-11-01T13:18:01.459Z,17.90
2022-11-01T13:20:55.375Z,16.05
2022-11-01T13:23:39.380Z,18.15
2022-11-01T13:26:42.491Z,15.73
2022-11-01T13:29:30.225Z,18.20
2022-11-01T13:32:16.073Z,17.65
2022-11-01T13:35:14.635Z,17.52
2022-11-01T13:38:08.232Z,18.13
2022-11-01T13:43:45.418Z,16.88
2022-11-01T13:46:34.221Z,16.40
2022-11-01T13:49:11.319Z,16.52
2022-11-01T13:55:26.144Z,16.35
2022-11-01T13:57:58.429Z,15.65
2022-11-01T14:00:45.735Z,15.93
2022-11-01T14:03:21.179Z,16.63
2022-11-01T14:06:13.866Z,16.30
2022-11-01T14:08:55.849Z,16.08
2022-11-01T14:11:51.482Z,15.88
2022-11-01T14:14:33.977Z,15.52
2022-11-01T14:17:28.513Z,14.82
2022-11-01T14:20:11.006Z,16.70
2022-11-01T14:22:46.435Z,15.48
2022-11-01T14:25:26.574Z,15.63
2022-11-01T14:28:18.117Z,16.35
2022-11-01T14:30:54.909Z,15.52
2022-11-01T14:33:26.511Z,14.88
2022-11-01T14:35:59.742Z,15.10
2022-11-01T14:38:40.448Z,14.93
2022-11-01T14:41:15.748Z,15.35
2022-11-01T14:44:13.070Z,15.63
2022-11-01T14:46:47.126Z,15.15
2022-11-01T14:49:29.945Z,15.00
2022-11-01T14:52:06.924Z,15.25
2022-11-01T14:55:10.101Z,14.20
2022-11-01T14:58:04.440Z,14.75
2022-11-01T15:00:56.664Z,14.93
2022-11-01T15:03:27.836Z,13.50
2022-11-01T15:05:58.786Z,14.30
2022-11-01T15:08:39.221Z,14.00
2022-11-01T15:11:31.150Z,14.57
2022-11-01T15:14:07.582Z,14.10
2022-11-01T15:16:39.071Z,14.10
2022-11-01T15:19:21.404Z,14.00
2022-11-01T15:21:52.670Z,13.02
2022-11-01T15:24:27.093Z,12.60
2022-11-01T15:26:58.574Z,13.82
2022-11-01T15:29:50.605Z,13.40
2022-11-01T15:32:57.000Z,12.82
2022-11-01T15:35:29.038Z,13.60
2022-11-01T15:38:00.259Z,13.98
2022-11-01T15:40:39.042Z,12.63
2022-11-01T15:43:23.644Z,13.90
2022-11-01T15:48:33.090Z,12.82
2022-11-01T15:51:07.990Z,12.43
2022-11-01T15:53:40.727Z,12.75
2022-11-01T15:56:21.275Z,12.40
2022-11-01T16:01:34.015Z,12.65
2022-11-01T16:04:11.755Z,12.35
2022-11-01T16:07:07.831Z,12.35
2022-11-01T16:10:04.876Z,11.38
2022-11-01T16:12:40.020Z,11.48
2022-11-01T16:15:27.793Z,11.40
2022-11-01T16:18:00.585Z,11.38
2022-11-01T16:20:48.231Z,12.07
2022-11-01T16:23:33.750Z,11.70
2022-11-01T16:26:08.463Z,11.80
2022-11-01T16:28:49.038Z,11.80
2022-11-01T16:31:31.046Z,10.65
2022-11-01T16:34:02.522Z,10.20
2022-11-01T16:36:46.867Z,11.32
2022-11-01T16:39:33.145Z,12.52
2022-11-01T16:42:04.065Z,10.82
2022-11-01T16:44:35.219Z,11.07
2022-11-01T16:47:06.112Z,11.40
2022-11-01T16:49:37.182Z,10.95
2022-11-01T16:52:12.575Z,10.95
2022-11-01T16:54:44.864Z,11.20
2022-11-01T16:57:26.603Z,10.13
2022-11-01T16:59:57.936Z,11.10
2022-11-01T17:02:31.327Z,10.38
2022-11-01T17:05:26.134Z,11.07
2022-11-01T17:07:57.768Z,10.50
2022-11-01T17:10:28.833Z,9.80
2022-11-01T17:12:59.896Z,10.40
2022-11-01T17:15:31.346Z,11.32
2022-11-01T17:18:09.130Z,10.75
2022-11-01T17:20:42.888Z,8.88
2022-11-01T17:23:24.231Z,10.50
2022-11-01T17:25:57.505Z,10.07
2022-11-01T17:28:29.165Z,10.50
2022-11-01T17:31:00.103Z,10.15
2022-11-01T17:36:18.783Z,9.98
2022-11-01T17:38:51.551Z,10.35
2022-11-01T17:41:22.672Z,9.77
2022-11-01T17:43:53.656Z,9.90
2022-11-01T17:46:27.720Z,10.93
2022-11-01T17:48:58.960Z,10.10
2022-11-01T17:51:30.281Z,9.38
2022-11-01T17:57:02.456Z,9.82
2022-11-01T17:59:53.173Z,9.48
2022-11-01T18:02:26.879Z,9.32
2022-11-01T18:07:39.860Z,9.73
2022-11-01T18:10:22.325Z,9.65
2022-11-01T18:13:49.517Z,8.95
2022-11-01T18:16:35.487Z,8.95
2022-11-01T18:19:28.829Z,9.70
2022-11-01T18:22:18.072Z,8.68
2022-11-01T18:25:41.752Z,8.77
2022-11-01T18:28:17.081Z,9.65
2022-11-01T18:31:30.121Z,9.60
2022-11-01T18:34:23.136Z,8.65
2022-11-01T18:37:01.736Z,9.45
2022-11-01T18:39:44.687Z,9.15
2022-11-01T18:42:16.156Z,8.88
2022-11-01T18:44:47.600Z,9.10
2022-11-01T18:47:44.338Z,8.60
2022-11-01T18:50:27.339Z,9.27
2022-11-01T18:53:19.226Z,8.70
2022-11-01T18:55:50.787Z,9.65
2022-11-01T18:58:34.756Z,9.20
2022-11-01T19:01:16.147Z,9.25
2022-11-01T19:04:09.341Z,9.10
2022-11-01T19:06:40.159Z,8.60
2022-11-01T19:09:30.837Z,9.02
2022-11-01T19:12:13.703Z,8.18
2022-11-01T19:14:46.742Z,9.18
2022-11-01T19:17:31.873Z,8.90
2022-11-01T19:20:03.243Z,8.60
2022-11-01T19:22:42.776Z,9.30
2022-11-01T19:25:21.898Z,9.27
2022-11-01T19:27:58.220Z,8.73
2022-11-01T19:30:33.461Z,8.90
2022-11-01T19:33:31.943Z,8.68
2022-11-01T19:36:13.109Z,9.50
2022-11-01T19:38:46.522Z,9.02
2022-11-01T19:41:23.565Z,8.70
2022-11-01T19:43:58.911Z,8.30
2022-11-01T19:46:50.288Z,8.50
2022-11-01T19:49:32.370Z,8.48
2022-11-01T19:52:26.299Z,8.57
2022-11-01T19:54:57.126Z,8.77
2022-11-01T19:57:47.727Z,8.23
2022-11-01T20:00:22.493Z,8.68
2022-11-01T20:02:57.108Z,8.20
2022-11-01T20:05:37.792Z,8.13
2022-11-01T20:08:35.052Z,8.75
2022-11-01T20:11:06.149Z,8.70
2022-11-01T20:13:38.580Z,8.80
2022-11-01T20:16:10.127Z,8.25
2022-11-01T20:18:42.329Z,8.57
2022-11-01T20:21:13.976Z,8.75
2022-11-01T20:23:44.914Z,8.63
2022-11-01T20:26:15.769Z,8.23
2022-11-01T20:28:50.498Z,9.02
2022-11-01T20:31:22.036Z,8.40
2022-11-01T20:33:53.120Z,9.02
2022-11-01T20:36:24.414Z,8.88
2022-11-01T20:38:55.573Z,8.73
2022-11-01T20:41:26.476Z,8.20
2022-11-01T20:43:57.944Z,8.57
2022-11-01T20:46:28.950Z,8.55
2022-11-01T20:49:00.740Z,7.95
2022-11-01T20:51:31.703Z,7.78
2022-11-01T20:54:05.297Z,8.50
2022-11-01T20:56:36.283Z,8.45
2022-11-01T20:59:07.138Z,7.90
2022-11-01T21:01:38.112Z,8.43
2022-11-01T21:04:14.151Z,8.30
2022-11-01T21:06:45.377Z,8.38
2022-11-01T21:09:47.832Z,8.00
2022-11-01T21:12:39.748Z,7.97
2022-11-01T21:15:29.641Z,8.13
2022-11-01T21:18:25.092Z,9.32
2022-11-01T21:20:56.199Z,8.55
2022-11-01T21:23:33.485Z,8.63
2022-11-01T21:26:24.184Z,8.57
2022-11-01T21:29:00.525Z,8.90
2022-11-01T21:31:32.971Z,7.82
2022-11-01T21:34:25.626Z,8.68
2022-11-01T21:37:23.342Z,8.63
2022-11-01T21:43:49.451Z,8.13
2022-11-01T21:46:24.271Z,7.88
2022-11-01T21:49:00.100Z,8.88
2022-11-01T21:51:33.699Z,8.32
2022-11-01T21:54:04.869Z,8.02
2022-11-01T21:56:36.026Z,8.07
2022-11-01T21:59:07.187Z,8.55
2022-11-01T22:01:38.389Z,8.43
2022-11-01T22:04:09.628Z,8.18
2022-11-01T22:06:40.823Z,8.05
2022-11-01T22:09:31.997Z,8.23
2022-11-01T22:12:03.552Z,8.70
2022-11-01T22:14:34.556Z,7.70
2022-11-01T22:17:05.897Z,8.68
2022-11-01T22:19:36.784Z,8.85
2022-11-01T22:22:07.917Z,8.35
2022-11-01T22:24:39.050Z,8.70
2022-11-01T22:27:38.649Z,8.55
2022-11-01T22:30:10.162Z,8.10
2022-11-01T22:32:41.238Z,8.98
2022-11-01T22:35:12.509Z,8.50
2022-11-01T22:37:44.125Z,7.72
2022-11-01T22:40:15.942Z,8.30
2022-11-01T22:43:19.241Z,7.78
2022-11-01T22:45:54.201Z,8.50
2022-11-01T22:48:26.370Z,8.40
2022-11-01T22:50:57.265Z,7.93
2022-11-01T22:53:28.567Z,8.77
2022-11-01T22:55:59.463Z,8.63
2022-11-01T22:58:40.001Z,9.23
2022-11-01T23:01:26.038Z,7.95
2022-11-01T23:04:02.126Z,8.45
2022-11-01T23:06:36.459Z,9.48
2022-11-01T23:09:18.043Z,8.18
2022-11-01T23:12:14.498Z,8.75
2022-11-01T23:17:36.545Z,7.70
2022-11-01T23:20:08.016Z,8.10
2022-11-01T23:22:39.471Z,8.45
2022-11-01T23:25:11.703Z,7.88
2022-11-01T23:27:46.230Z,8.32
2022-11-01T23:30:21.616Z,8.30
2022-11-01T23:32:53.017Z,8.40
2022-11-01T23:35:24.714Z,8.55
2022-11-01T23:37:59.360Z,8.20
2022-11-01T23:40:34.964Z,8.52
2022-11-01T23:43:37.865Z,9.50
2022-11-01T23:46:11.594Z,10.95
2022-11-01T23:48:44.456Z,11.40
2022-11-01T23:51:38.550Z,13.88
2022-11-01T23:54:18.054Z,12.45
2022-11-01T23:56:49.212Z,13.75
2022-11-01T23:59:20.430Z,13.05
